createdAt,value
2022-10-09T00:00:45.543Z,7.47
2022-10-09T00:03:13.352Z,7.49
2022-10-09T00:05:39.948Z,7.49
2022-10-09T00:08:06.706Z,7.42
2022-10-09T00:10:33.250Z,7.35
2022-10-09T00:12:59.767Z,7.30
2022-10-09T00:15:26.261Z,7.29
2022-10-09T00:17:52.857Z,7.18
2022-10-09T00:20:19.434Z,7.23
2022-10-09T00:22:46.230Z,7.19
2022-10-09T00:25:12.943Z,7.10
2022-10-09T00:27:39.478Z,7.02
2022-10-09T00:30:06.665Z,6.92
2022-10-09T00:32:33.231Z,6.87
2022-10-09T00:34:59.695Z,6.83
2022-10-09T00:37:26.257Z,6.82
2022-10-09T00:39:53.209Z,6.83
2022-10-09T00:42:19.855Z,6.81
2022-10-09T00:44:59.883Z,6.74
2022-10-09T00:47:42.946Z,6.79
2022-10-09T00:50:21.787Z,6.76
2022-10-09T00:52:54.987Z,6.76
2022-10-09T00:55:23.601Z,6.79
2022-10-09T00:57:51.867Z,6.78
2022-10-09T01:00:18.714Z,6.84
2022-10-09T01:02:45.299Z,6.79
2022-10-09T01:05:13.147Z,6.83
2022-10-09T01:08:07.853Z,6.79
2022-10-09T01:10:50.387Z,6.79
2022-10-09T01:13:27.373Z,6.79
2022-10-09T01:16:24.116Z,6.78
2022-10-09T01:19:01.072Z,6.72
2022-10-09T01:21:53.757Z,6.72
2022-10-09T01:24:32.273Z,6.73
2022-10-09T01:27:16.341Z,6.76
2022-10-09T01:29:46.490Z,6.77
2022-10-09T01:32:17.163Z,6.74
2022-10-09T01:34:45.014Z,6.65
2022-10-09T01:37:14.211Z,6.58
2022-10-09T01:39:42.970Z,6.55
2022-10-09T01:42:13.174Z,6.49
2022-10-09T01:44:40.367Z,6.50
2022-10-09T01:47:09.726Z,6.42
2022-10-09T01:49:54.455Z,6.45
2022-10-09T01:52:50.095Z,6.46
2022-10-09T01:55:48.001Z,6.44
2022-10-09T01:58:41.930Z,6.43
2022-10-09T02:01:15.076Z,6.46
2022-10-09T02:03:45.610Z,6.50
2022-10-09T02:06:14.661Z,6.46
2022-10-09T02:08:43.865Z,6.43
2022-10-09T02:11:14.847Z,6.45
2022-10-09T02:13:43.610Z,6.44
2022-10-09T02:16:25.405Z,6.40
2022-10-09T02:18:54.688Z,6.43
2022-10-09T02:21:25.308Z,6.39
2022-10-09T02:23:54.234Z,6.36
2022-10-09T02:26:21.210Z,6.37
2022-10-09T02:28:47.976Z,6.39
2022-10-09T02:31:23.241Z,6.27
2022-10-09T02:34:01.084Z,6.24
2022-10-09T02:36:28.415Z,6.21
2022-10-09T02:38:55.737Z,6.16
2022-10-09T02:41:23.245Z,6.08
2022-10-09T02:43:50.433Z,6.05
2022-10-09T02:46:17.524Z,6.03
2022-10-09T02:48:44.168Z,5.94
2022-10-09T02:51:11.020Z,5.99
2022-10-09T02:53:37.533Z,5.98
2022-10-09T02:56:04.229Z,5.96
2022-10-09T02:58:32.317Z,6.06
2022-10-09T03:00:58.887Z,5.95
2022-10-09T03:03:25.875Z,5.97
2022-10-09T03:06:13.333Z,5.91
2022-10-09T03:08:42.643Z,5.75
2022-10-09T03:11:10.227Z,5.71
2022-10-09T03:13:37.196Z,5.61
2022-10-09T03:16:09.852Z,5.60
2022-10-09T03:18:37.109Z,5.48
2022-10-09T03:21:08.322Z,5.41
2022-10-09T03:23:35.695Z,5.45
2022-10-09T03:26:05.003Z,5.55
2022-10-09T03:28:31.555Z,5.54
2022-10-09T03:30:58.223Z,5.55
2022-10-09T03:33:24.716Z,5.62
2022-10-09T03:35:51.272Z,5.48
2022-10-09T03:38:18.002Z,5.54
2022-10-09T03:40:44.760Z,5.59
2022-10-09T03:43:11.416Z,5.52
2022-10-09T03:45:42.068Z,5.51
2022-10-09T03:48:10.099Z,5.69
2022-10-09T03:50:38.165Z,5.68
2022-10-09T03:53:06.238Z,5.70
2022-10-09T03:55:32.980Z,5.74
2022-10-09T03:57:59.888Z,5.70
2022-10-09T04:00:26.499Z,5.74
2022-10-09T04:02:53.443Z,5.80
2022-10-09T04:05:20.622Z,5.79
2022-10-09T04:07:47.182Z,5.82
2022-10-09T04:10:13.811Z,5.74
2022-10-09T04:12:40.549Z,5.71
2022-10-09T04:15:07.795Z,5.78
2022-10-09T04:17:34.347Z,5.89
2022-10-09T04:20:00.958Z,5.81
2022-10-09T04:22:27.793Z,5.74
2022-10-09T04:24:54.401Z,5.66
2022-10-09T04:27:21.070Z,5.60
2022-10-09T04:29:47.599Z,5.52
2022-10-09T04:32:14.154Z,5.53
2022-10-09T04:34:40.901Z,5.51
2022-10-09T04:37:07.457Z,5.49
2022-10-09T04:39:33.974Z,5.41
2022-10-09T04:42:00.568Z,5.39
2022-10-09T04:44:27.162Z,5.44
2022-10-09T04:46:53.670Z,5.49
2022-10-09T04:49:20.272Z,5.51
2022-10-09T04:51:47.975Z,5.48
2022-10-09T04:54:14.593Z,5.53
2022-10-09T04:56:41.201Z,5.52
2022-10-09T04:59:07.765Z,5.52
2022-10-09T05:01:39.416Z,5.57
2022-10-09T05:04:06.098Z,5.65
2022-10-09T05:06:32.572Z,5.63
2022-10-09T05:08:59.200Z,5.53
2022-10-09T05:11:26.270Z,5.39
2022-10-09T05:13:56.142Z,5.30
2022-10-09T05:16:25.200Z,5.41
2022-10-09T05:18:54.813Z,5.34
2022-10-09T05:21:22.123Z,5.23
2022-10-09T05:23:49.363Z,5.19
2022-10-09T05:26:18.987Z,5.12
2022-10-09T05:28:46.583Z,5.16
2022-10-09T05:31:24.092Z,5.15
2022-10-09T05:33:50.935Z,5.13
2022-10-09T05:36:18.460Z,5.07
2022-10-09T05:38:46.182Z,5.02
2022-10-09T05:41:15.332Z,5.00
2022-10-09T05:43:43.778Z,5.02
2022-10-09T05:46:16.020Z,5.03
2022-10-09T05:48:45.055Z,4.99
2022-10-09T05:51:18.032Z,5.04
2022-10-09T05:53:45.780Z,5.03
2022-10-09T05:56:26.767Z,4.99
2022-10-09T05:58:54.694Z,5.07
2022-10-09T06:01:22.932Z,4.96
2022-10-09T06:03:51.768Z,4.99
2022-10-09T06:06:19.716Z,4.95
2022-10-09T06:08:46.620Z,5.03
2022-10-09T06:11:20.421Z,5.13
2022-10-09T06:13:48.142Z,5.19
2022-10-09T06:16:16.335Z,5.19
2022-10-09T06:18:49.443Z,5.41
2022-10-09T06:21:17.085Z,5.43
2022-10-09T06:23:43.793Z,5.45
2022-10-09T06:26:13.224Z,5.42
2022-10-09T06:28:40.888Z,5.54
2022-10-09T06:31:14.986Z,5.61
2022-10-09T06:33:43.175Z,5.66
2022-10-09T06:36:15.709Z,5.75
2022-10-09T06:38:42.824Z,5.85
2022-10-09T06:41:11.960Z,6.05
2022-10-09T06:43:39.254Z,6.11
2022-10-09T06:46:12.775Z,6.22
2022-10-09T06:48:40.751Z,6.31
2022-10-09T06:51:15.404Z,6.52
2022-10-09T06:53:47.597Z,6.67
2022-10-09T06:56:15.216Z,6.87
2022-10-09T06:58:42.442Z,7.07
2022-10-09T07:01:20.697Z,7.28
2022-10-09T07:03:52.965Z,7.57
2022-10-09T07:06:22.110Z,7.80
2022-10-09T07:08:51.952Z,8.07
2022-10-09T07:11:25.327Z,8.38
2022-10-09T07:13:57.132Z,8.57
2022-10-09T07:16:26.064Z,8.87
2022-10-09T07:18:52.924Z,9.22
2022-10-09T07:21:19.771Z,9.61
2022-10-09T07:23:47.061Z,9.83
2022-10-09T07:26:23.189Z,10.11
2022-10-09T07:28:50.532Z,10.27
2022-10-09T07:31:17.455Z,10.72
2022-10-09T07:33:47.458Z,11.16
2022-10-09T07:36:13.965Z,11.51
2022-10-09T07:38:40.542Z,11.96
2022-10-09T07:41:09.974Z,12.29
2022-10-09T07:43:38.264Z,12.57
2022-10-09T07:46:07.448Z,12.86
2022-10-09T07:48:35.451Z,13.18
2022-10-09T07:51:15.238Z,13.59
2022-10-09T07:53:41.867Z,13.91
2022-10-09T07:56:14.286Z,14.27
2022-10-09T07:58:40.966Z,14.64
2022-10-09T08:01:08.366Z,14.80
2022-10-09T08:03:35.947Z,14.79
2022-10-09T08:06:03.045Z,14.69
2022-10-09T08:08:29.888Z,15.09
2022-10-09T08:10:56.404Z,14.82
2022-10-09T08:13:23.034Z,14.90
2022-10-09T08:15:49.605Z,14.94
2022-10-09T08:18:16.170Z,14.68
2022-10-09T08:20:42.672Z,14.62
2022-10-09T08:23:09.765Z,14.94
2022-10-09T08:25:37.414Z,15.08
2022-10-09T08:28:04.763Z,14.88
2022-10-09T08:30:31.443Z,15.28
2022-10-09T08:32:58.092Z,15.37
2022-10-09T08:35:24.634Z,15.36
2022-10-09T08:37:51.196Z,15.62
2022-10-09T08:40:22.903Z,15.70
2022-10-09T08:43:05.897Z,15.14
2022-10-09T08:45:35.071Z,15.47
2022-10-09T08:48:07.434Z,15.54
2022-10-09T08:50:39.245Z,16.03
2022-10-09T08:53:14.859Z,15.79
2022-10-09T08:55:46.968Z,15.55
2022-10-09T08:58:20.199Z,15.92
2022-10-09T09:00:54.012Z,16.15
2022-10-09T09:03:51.508Z,16.38
2022-10-09T09:06:36.430Z,16.99
2022-10-09T09:09:19.903Z,17.12
2022-10-09T09:12:09.848Z,17.02
2022-10-09T09:15:01.071Z,17.44
2022-10-09T09:17:45.787Z,17.08
2022-10-09T09:20:38.541Z,17.54
2022-10-09T09:23:13.411Z,17.67
2022-10-09T09:25:42.255Z,17.83
2022-10-09T09:28:20.329Z,18.25
2022-10-09T09:31:12.779Z,18.77
2022-10-09T09:33:52.869Z,18.84
2022-10-09T09:36:29.560Z,18.34
2022-10-09T09:39:49.886Z,18.39
2022-10-09T09:41:44.020Z,18.53
2022-10-09T09:44:13.781Z,18.87
2022-10-09T09:46:42.384Z,18.57
2022-10-09T09:49:23.537Z,18.47
2022-10-09T09:51:50.941Z,18.33
2022-10-09T09:54:27.343Z,18.64
2022-10-09T09:57:18.224Z,18.67
2022-10-09T09:59:45.597Z,18.94
2022-10-09T10:02:17.916Z,19.28
2022-10-09T10:04:57.461Z,18.91
2022-10-09T10:07:36.195Z,18.69
2022-10-09T10:10:19.887Z,18.55
2022-10-09T10:12:59.383Z,19.01
2022-10-09T10:15:28.704Z,18.97
2022-10-09T10:18:07.305Z,19.03
2022-10-09T10:20:43.485Z,18.99
2022-10-09T10:23:51.571Z,19.01
2022-10-09T10:26:36.654Z,18.63
2022-10-09T10:29:15.837Z,18.64
2022-10-09T10:32:10.497Z,18.49
2022-10-09T10:34:42.903Z,18.68
2022-10-09T10:37:23.785Z,18.88
2022-10-09T10:39:57.222Z,18.80
2022-10-09T10:42:57.423Z,18.73
2022-10-09T10:45:40.811Z,18.71
2022-10-09T10:48:13.126Z,18.82
2022-10-09T10:50:47.016Z,18.76
2022-10-09T10:53:39.945Z,19.10
2022-10-09T10:56:14.995Z,19.17
2022-10-09T10:59:33.010Z,18.92
2022-10-09T11:02:17.694Z,18.76
2022-10-09T11:05:19.879Z,18.91
2022-10-09T11:08:12.369Z,19.08
2022-10-09T11:11:02.947Z,18.84
2022-10-09T11:14:14.514Z,19.05
2022-10-09T11:16:43.135Z,18.89
2022-10-09T11:19:51.088Z,18.84
2022-10-09T11:22:36.250Z,18.71
2022-10-09T11:25:29.820Z,19.07
2022-10-09T11:28:09.389Z,19.21
2022-10-09T11:30:57.736Z,19.27
2022-10-09T11:33:33.492Z,19.00
2022-10-09T11:36:04.950Z,19.02
2022-10-09T11:38:43.577Z,18.77
2022-10-09T11:41:11.215Z,18.93
2022-10-09T11:43:49.353Z,19.08
2022-10-09T11:46:33.762Z,18.98
2022-10-09T11:49:19.037Z,18.86
2022-10-09T11:51:54.912Z,19.18
2022-10-09T11:54:23.508Z,19.09
2022-10-09T11:57:05.825Z,19.16
2022-10-09T11:59:36.492Z,19.01
2022-10-09T12:02:21.229Z,19.07
2022-10-09T12:04:55.844Z,19.26
2022-10-09T12:07:35.722Z,19.09
2022-10-09T12:10:39.501Z,18.81
2022-10-09T12:13:08.430Z,18.72
2022-10-09T12:15:50.099Z,18.57
2022-10-09T12:18:23.116Z,18.40
2022-10-09T12:20:51.027Z,18.14
2022-10-09T12:23:27.425Z,18.10
2022-10-09T12:25:56.273Z,18.43
2022-10-09T12:28:48.329Z,18.44
2022-10-09T12:31:29.977Z,18.49
2022-10-09T12:34:02.213Z,18.30
2022-10-09T12:36:30.077Z,18.33
2022-10-09T12:38:57.201Z,18.23
2022-10-09T12:41:28.530Z,18.33
2022-10-09T12:43:56.705Z,18.38
2022-10-09T12:46:32.355Z,18.23
2022-10-09T12:49:00.638Z,18.02
2022-10-09T12:51:29.650Z,18.09
2022-10-09T12:53:56.324Z,17.94
2022-10-09T12:56:28.499Z,18.08
2022-10-09T12:58:57.396Z,18.11
2022-10-09T13:01:24.842Z,18.11
2022-10-09T13:03:59.914Z,17.80
2022-10-09T13:06:33.426Z,17.96
2022-10-09T13:09:03.042Z,18.03
2022-10-09T13:11:32.081Z,18.09
2022-10-09T13:13:58.923Z,18.04
2022-10-09T13:16:25.988Z,17.91
2022-10-09T13:19:01.412Z,17.71
2022-10-09T13:21:35.307Z,17.76
2022-10-09T13:24:10.547Z,17.55
2022-10-09T13:26:38.713Z,17.57
2022-10-09T13:29:06.617Z,17.59
2022-10-09T13:31:34.031Z,17.40
2022-10-09T13:34:10.396Z,17.19
2022-10-09T13:36:37.055Z,17.06
2022-10-09T13:39:04.515Z,16.95
2022-10-09T13:41:31.724Z,16.92
2022-10-09T13:43:58.667Z,16.94
2022-10-09T13:46:25.342Z,17.04
2022-10-09T13:48:51.957Z,16.91
2022-10-09T13:51:18.543Z,16.88
2022-10-09T13:53:45.152Z,16.76
2022-10-09T13:56:11.691Z,16.77
2022-10-09T13:58:38.242Z,16.77
2022-10-09T14:01:05.073Z,16.68
2022-10-09T14:03:31.643Z,16.62
2022-10-09T14:06:03.810Z,16.60
2022-10-09T14:08:31.375Z,16.54
2022-10-09T14:11:01.617Z,16.43
2022-10-09T14:13:28.938Z,16.51
2022-10-09T14:15:55.808Z,16.49
2022-10-09T14:18:22.555Z,16.56
2022-10-09T14:20:49.565Z,16.43
2022-10-09T14:23:16.131Z,16.27
2022-10-09T14:25:42.669Z,16.31
2022-10-09T14:28:09.368Z,16.28
2022-10-09T14:30:40.180Z,16.24
2022-10-09T14:33:06.720Z,16.16
2022-10-09T14:35:33.237Z,16.12
2022-10-09T14:37:59.930Z,16.13
2022-10-09T14:40:26.436Z,16.11
2022-10-09T14:42:53.055Z,16.20
2022-10-09T14:45:19.696Z,16.12
2022-10-09T14:47:46.226Z,16.09
2022-10-09T14:50:12.724Z,16.05
2022-10-09T14:52:39.213Z,16.06
2022-10-09T14:55:05.990Z,16.04
2022-10-09T14:57:35.446Z,15.96
2022-10-09T15:00:03.987Z,15.91
2022-10-09T15:02:31.032Z,15.86
2022-10-09T15:04:57.605Z,15.78
2022-10-09T15:07:24.604Z,15.76
2022-10-09T15:09:51.166Z,15.71
2022-10-09T15:12:17.709Z,15.73
2022-10-09T15:14:44.220Z,15.74
2022-10-09T15:17:10.715Z,15.70
2022-10-09T15:19:37.806Z,15.63
2022-10-09T15:22:04.751Z,15.53
2022-10-09T15:24:31.252Z,15.55
2022-10-09T15:26:57.818Z,15.50
2022-10-09T15:29:24.381Z,15.41
2022-10-09T15:31:51.672Z,15.45
2022-10-09T15:34:19.806Z,15.48
2022-10-09T15:36:46.650Z,15.44
2022-10-09T15:39:14.227Z,15.43
2022-10-09T15:41:42.397Z,15.30
2022-10-09T15:44:15.918Z,15.29
2022-10-09T15:46:43.120Z,15.22
2022-10-09T15:49:09.720Z,15.14
2022-10-09T15:51:36.317Z,15.02
2022-10-09T15:54:03.430Z,15.06
2022-10-09T15:56:30.306Z,14.88
2022-10-09T15:58:58.013Z,14.76
2022-10-09T16:01:24.837Z,14.72
2022-10-09T16:03:51.675Z,14.66
2022-10-09T16:06:21.334Z,14.58
2022-10-09T16:08:47.962Z,14.61
2022-10-09T16:11:19.153Z,14.43
2022-10-09T16:13:48.696Z,14.39
2022-10-09T16:16:20.107Z,14.28
2022-10-09T16:18:47.919Z,14.25
2022-10-09T16:21:19.487Z,14.12
2022-10-09T16:23:46.836Z,14.06
2022-10-09T16:26:16.283Z,13.90
2022-10-09T16:28:43.472Z,13.80
2022-10-09T16:31:17.864Z,13.79
2022-10-09T16:33:44.468Z,13.66
2022-10-09T16:36:12.503Z,13.55
2022-10-09T16:38:39.788Z,13.55
2022-10-09T16:41:12.356Z,13.36
2022-10-09T16:43:39.636Z,13.17
2022-10-09T16:46:17.321Z,13.01
2022-10-09T16:48:44.269Z,12.97
2022-10-09T16:51:16.599Z,12.72
2022-10-09T16:53:43.158Z,12.55
2022-10-09T16:56:12.709Z,12.41
2022-10-09T16:58:41.103Z,12.31
2022-10-09T17:01:10.092Z,12.16
2022-10-09T17:03:40.635Z,12.11
2022-10-09T17:06:16.243Z,11.92
2022-10-09T17:08:42.698Z,11.78
2022-10-09T17:11:10.517Z,11.65
2022-10-09T17:13:37.653Z,11.58
2022-10-09T17:16:06.793Z,11.48
2022-10-09T17:18:33.711Z,11.50
2022-10-09T17:21:05.360Z,11.40
2022-10-09T17:23:32.661Z,11.32
2022-10-09T17:26:00.605Z,11.18
2022-10-09T17:28:27.162Z,11.09
2022-10-09T17:30:53.720Z,11.01
2022-10-09T17:33:20.286Z,10.89
2022-10-09T17:35:46.881Z,10.80
2022-10-09T17:38:13.575Z,10.71
2022-10-09T17:40:40.768Z,10.73
2022-10-09T17:43:08.272Z,10.71
2022-10-09T17:45:42.474Z,10.76
2022-10-09T17:48:09.841Z,10.59
2022-10-09T17:50:36.908Z,10.22
2022-10-09T17:53:04.776Z,9.92
2022-10-09T17:55:31.816Z,9.87
2022-10-09T17:58:00.678Z,9.87
2022-10-09T18:00:28.534Z,9.87
2022-10-09T18:02:55.079Z,9.82
2022-10-09T18:05:21.583Z,9.73
2022-10-09T18:07:48.252Z,9.58
2022-10-09T18:10:16.807Z,9.49
2022-10-09T18:12:43.494Z,9.18
2022-10-09T18:15:13.534Z,8.94
2022-10-09T18:17:40.261Z,8.96
2022-10-09T18:20:07.471Z,8.92
2022-10-09T18:22:37.347Z,8.95
2022-10-09T18:25:05.639Z,8.93
2022-10-09T18:27:35.833Z,8.92
2022-10-09T18:30:02.422Z,8.92
2022-10-09T18:32:29.066Z,8.87
2022-10-09T18:34:55.633Z,8.87
2022-10-09T18:37:22.197Z,8.85
2022-10-09T18:39:48.801Z,8.88
2022-10-09T18:42:15.565Z,8.90
2022-10-09T18:44:44.567Z,8.95
2022-10-09T18:47:17.402Z,8.85
2022-10-09T18:50:14.479Z,8.79
2022-10-09T18:52:43.150Z,8.77
2022-10-09T18:55:15.010Z,8.75
2022-10-09T18:57:46.552Z,8.72
2022-10-09T19:00:14.430Z,8.65
2022-10-09T19:02:41.382Z,8.69
2022-10-09T19:05:08.272Z,8.68
2022-10-09T19:07:34.803Z,8.69
2022-10-09T19:10:01.558Z,8.74
2022-10-09T19:12:28.350Z,8.89
2022-10-09T19:14:55.214Z,8.96
2022-10-09T19:17:22.139Z,8.95
2022-10-09T19:19:49.036Z,8.95
2022-10-09T19:22:21.418Z,9.00
2022-10-09T19:24:50.462Z,9.11
2022-10-09T19:27:17.208Z,9.14
2022-10-09T19:29:43.980Z,9.05
2022-10-09T19:32:10.809Z,9.04
2022-10-09T19:34:37.529Z,8.96
2022-10-09T19:39:32.848Z,8.89
2022-10-09T19:41:59.399Z,8.86
2022-10-09T19:44:25.992Z,8.76
2022-10-09T19:46:52.590Z,8.66
2022-10-09T19:49:19.069Z,8.60
2022-10-09T19:51:45.977Z,8.56
2022-10-09T19:54:12.678Z,8.81
2022-10-09T19:56:40.232Z,8.72
2022-10-09T19:59:09.044Z,8.68
2022-10-09T20:01:39.792Z,8.67
2022-10-09T20:04:09.767Z,8.65
2022-10-09T20:06:38.685Z,8.67
2022-10-09T20:09:06.873Z,8.62
2022-10-09T20:11:36.996Z,8.67
2022-10-09T20:14:04.354Z,8.64
2022-10-09T20:16:32.391Z,8.92
2022-10-09T20:19:03.325Z,9.03
2022-10-09T20:21:31.741Z,9.05
2022-10-09T20:24:01.394Z,9.03
2022-10-09T20:26:29.898Z,8.88
2022-10-09T20:28:56.572Z,8.78
2022-10-09T20:31:25.737Z,8.59
2022-10-09T20:33:53.660Z,8.38
2022-10-09T20:36:26.929Z,8.32
2022-10-09T20:39:04.840Z,8.28
2022-10-09T20:41:33.003Z,8.32
2022-10-09T20:44:01.449Z,8.28
2022-10-09T20:46:30.166Z,8.29
2022-10-09T20:48:57.005Z,8.25
2022-10-09T20:51:24.668Z,8.25
2022-10-09T20:53:55.910Z,8.27
2022-10-09T20:56:24.319Z,8.26
2022-10-09T20:58:51.606Z,8.22
2022-10-09T21:01:18.665Z,8.10
2022-10-09T21:03:45.464Z,8.01
2022-10-09T21:06:16.113Z,8.06
2022-10-09T21:08:42.641Z,8.08
2022-10-09T21:11:11.918Z,8.08
2022-10-09T21:13:39.805Z,8.07
2022-10-09T21:16:09.058Z,8.01
2022-10-09T21:18:35.866Z,7.93
2022-10-09T21:21:14.312Z,7.79
2022-10-09T21:23:41.842Z,7.75
2022-10-09T21:26:13.853Z,7.74
2022-10-09T21:28:40.917Z,7.72
2022-10-09T21:31:12.739Z,7.64
2022-10-09T21:33:39.225Z,7.65
2022-10-09T21:36:23.904Z,7.62
2022-10-09T21:38:50.404Z,7.61
2022-10-09T21:41:16.965Z,7.66
2022-10-09T21:43:44.088Z,7.61
2022-10-09T21:46:10.591Z,7.45
2022-10-09T21:48:37.195Z,7.38
2022-10-09T21:51:04.069Z,7.40
2022-10-09T21:53:30.641Z,7.49
2022-10-09T21:55:57.219Z,7.41
2022-10-09T21:58:23.707Z,7.37
2022-10-09T22:00:57.735Z,7.32
2022-10-09T22:03:30.100Z,7.32
2022-10-09T22:05:56.939Z,7.22
2022-10-09T22:08:24.603Z,7.27
2022-10-09T22:10:51.857Z,7.34
2022-10-09T22:13:20.216Z,7.28
2022-10-09T22:15:50.938Z,7.41
2022-10-09T22:18:17.994Z,7.43
2022-10-09T22:20:49.242Z,7.56
2022-10-09T22:23:18.175Z,7.61
2022-10-09T22:25:44.950Z,7.50
2022-10-09T22:28:11.552Z,7.41
2022-10-09T22:30:38.078Z,7.27
2022-10-09T22:33:04.856Z,7.13
2022-10-09T22:35:31.332Z,7.02
2022-10-09T22:37:57.958Z,6.94
2022-10-09T22:40:24.464Z,6.94
2022-10-09T22:42:51.214Z,6.95
2022-10-09T22:45:17.939Z,6.92
2022-10-09T22:47:47.219Z,6.88
2022-10-09T22:50:13.750Z,6.81
2022-10-09T22:52:40.343Z,6.78
2022-10-09T22:55:07.336Z,6.79
2022-10-09T22:57:33.876Z,6.78
2022-10-09T23:00:00.413Z,6.74
2022-10-09T23:02:26.907Z,6.68
2022-10-09T23:04:53.432Z,6.65
2022-10-09T23:07:19.928Z,6.66
2022-10-09T23:09:46.596Z,6.63
2022-10-09T23:12:13.165Z,6.59
2022-10-09T23:14:39.699Z,6.55
2022-10-09T23:17:06.206Z,6.53
2022-10-09T23:19:33.897Z,6.50
2022-10-09T23:22:00.406Z,6.47
2022-10-09T23:24:27.033Z,6.45
2022-10-09T23:26:53.489Z,6.40
2022-10-09T23:29:21.024Z,6.40
2022-10-09T23:31:48.613Z,6.36
2022-10-09T23:34:15.750Z,6.31
2022-10-09T23:36:42.241Z,6.28
2022-10-09T23:39:08.894Z,6.28
2022-10-09T23:41:35.711Z,6.23
2022-10-09T23:44:02.471Z,6.27
2022-10-09T23:46:32.962Z,6.52
2022-10-09T23:48:59.952Z,6.73
2022-10-09T23:51:27.082Z,6.83
2022-10-09T23:53:53.831Z,6.96
2022-10-09T23:56:24.962Z,7.11
2022-10-09T23:58:52.932Z,7.24
